createdAt,value
2023-11-28T00:01:24.067Z,34.75
2023-11-28T00:03:51.125Z,33.89
2023-11-28T00:06:23.527Z,35.26
2023-11-28T00:08:50.678Z,33.55
2023-11-28T00:11:24.951Z,32.67
2023-11-28T00:13:52.419Z,33.20
2023-11-28T00:16:20.120Z,32.99
2023-11-28T00:18:47.610Z,33.08
2023-11-28T00:21:14.853Z,33.74
2023-11-28T00:23:42.018Z,33.42
2023-11-28T00:26:09.985Z,32.64
2023-11-28T00:28:44.770Z,31.38
2023-11-28T00:31:11.737Z,32.20
2023-11-28T00:33:39.080Z,32.42
2023-11-28T00:36:06.422Z,32.10
2023-11-28T00:38:33.300Z,32.33
2023-11-28T00:41:00.739Z,31.79
2023-11-28T00:43:28.029Z,32.84
2023-11-28T00:45:54.960Z,31.56
2023-11-28T00:48:24.009Z,31.58
2023-11-28T00:50:51.866Z,31.53
2023-11-28T00:53:18.964Z,31.45
2023-11-28T00:55:46.074Z,31.76
2023-11-28T00:58:13.091Z,30.61
2023-11-28T01:00:40.099Z,31.21
2023-11-28T01:03:07.264Z,31.45
2023-11-28T01:05:34.268Z,30.24
2023-11-28T01:08:01.194Z,29.81
2023-11-28T01:10:28.115Z,30.39
2023-11-28T01:12:55.067Z,30.35
2023-11-28T01:15:22.386Z,30.72
2023-11-28T01:17:49.952Z,29.76
2023-11-28T01:20:17.051Z,30.46
2023-11-28T01:22:44.493Z,30.12
2023-11-28T01:25:12.293Z,30.29
2023-11-28T01:27:39.549Z,30.61
2023-11-28T01:30:07.879Z,31.28
2023-11-28T01:32:35.114Z,31.10
2023-11-28T01:35:03.414Z,31.06
2023-11-28T01:37:30.847Z,31.68
2023-11-28T01:39:57.976Z,31.38
2023-11-28T01:42:25.035Z,31.55
2023-11-28T01:44:52.011Z,31.20
2023-11-28T01:47:19.138Z,31.41
2023-11-28T01:49:47.958Z,31.51
2023-11-28T01:52:16.071Z,32.11
2023-11-28T01:54:44.837Z,31.70
2023-11-28T01:57:12.745Z,31.77
2023-11-28T01:59:44.661Z,31.16
2023-11-28T02:02:13.093Z,31.78
2023-11-28T02:04:40.222Z,31.23
2023-11-28T02:07:07.313Z,30.71
2023-11-28T02:09:34.411Z,31.63
2023-11-28T02:12:01.428Z,30.73
2023-11-28T02:14:28.369Z,31.30
2023-11-28T02:16:55.435Z,30.99
2023-11-28T02:19:22.448Z,31.37
2023-11-28T02:21:50.875Z,29.36
2023-11-28T02:24:19.357Z,30.34
2023-11-28T02:26:46.410Z,30.25
2023-11-28T02:29:13.572Z,29.72
2023-11-28T02:31:40.872Z,30.18
2023-11-28T02:34:07.959Z,30.10
2023-11-28T02:36:34.895Z,29.72
2023-11-28T02:39:01.895Z,29.14
2023-11-28T02:41:28.796Z,28.44
2023-11-28T02:43:55.868Z,29.93
2023-11-28T02:46:23.192Z,30.57
2023-11-28T02:48:50.324Z,30.21
2023-11-28T02:51:20.852Z,31.32
2023-11-28T02:53:48.624Z,30.51
2023-11-28T02:56:15.664Z,31.01
2023-11-28T02:58:42.862Z,31.02
2023-11-28T03:01:09.854Z,31.05
2023-11-28T03:03:37.193Z,30.47
2023-11-28T03:06:04.646Z,30.19
2023-11-28T03:08:31.621Z,30.75
2023-11-28T03:10:58.569Z,31.02
2023-11-28T03:13:25.460Z,30.23
2023-11-28T03:15:54.343Z,30.03
2023-11-28T03:18:21.471Z,30.65
2023-11-28T03:20:49.265Z,30.12
2023-11-28T03:23:16.412Z,31.03
2023-11-28T03:25:43.409Z,30.17
2023-11-28T03:28:10.509Z,30.55
2023-11-28T03:30:37.510Z,31.54
2023-11-28T03:33:05.216Z,31.18
2023-11-28T03:35:32.217Z,30.97
2023-11-28T03:37:59.922Z,31.90
2023-11-28T03:40:28.300Z,32.00
2023-11-28T03:42:55.345Z,32.46
2023-11-28T03:45:22.542Z,32.34
2023-11-28T03:47:49.495Z,32.37
2023-11-28T03:50:16.631Z,32.73
2023-11-28T03:52:43.637Z,33.42
2023-11-28T03:55:11.363Z,34.89
2023-11-28T03:57:38.610Z,34.00
2023-11-28T04:00:07.223Z,34.07
2023-11-28T04:02:34.246Z,35.53
2023-11-28T04:05:06.058Z,35.51
2023-11-28T04:07:33.366Z,35.71
2023-11-28T04:10:00.440Z,36.22
2023-11-28T04:12:27.729Z,37.63
2023-11-28T04:14:54.813Z,37.33
2023-11-28T04:17:21.793Z,38.78
2023-11-28T04:19:48.762Z,37.63
2023-11-28T04:22:15.924Z,38.01
2023-11-28T04:24:45.105Z,38.50
2023-11-28T04:27:15.227Z,39.04
2023-11-28T04:29:43.046Z,39.94
2023-11-28T04:32:11.636Z,40.93
2023-11-28T04:34:39.061Z,41.06
2023-11-28T04:37:06.162Z,40.52
2023-11-28T04:39:35.014Z,40.61
2023-11-28T04:42:02.454Z,41.58
2023-11-28T04:44:29.517Z,41.21
2023-11-28T04:46:56.556Z,42.45
2023-11-28T04:49:25.115Z,42.97
2023-11-28T04:51:52.910Z,42.44
2023-11-28T04:54:20.584Z,43.39
2023-11-28T04:56:48.009Z,44.46
2023-11-28T04:59:15.727Z,45.03
2023-11-28T05:01:47.535Z,44.03
2023-11-28T05:04:15.925Z,44.61
2023-11-28T05:06:43.922Z,46.29
2023-11-28T05:09:12.710Z,47.56
2023-11-28T05:11:42.791Z,47.53
2023-11-28T05:14:11.293Z,45.96
2023-11-28T05:16:48.101Z,45.74
2023-11-28T05:19:21.850Z,46.82
2023-11-28T05:21:50.009Z,46.47
2023-11-28T05:24:17.523Z,46.37
2023-11-28T05:26:45.136Z,46.26
2023-11-28T05:29:13.057Z,46.46
2023-11-28T05:31:40.816Z,48.02
2023-11-28T05:34:08.350Z,47.97
2023-11-28T05:36:35.998Z,49.91
2023-11-28T05:39:04.636Z,51.43
2023-11-28T05:41:32.005Z,51.23
2023-11-28T05:44:00.318Z,53.06
2023-11-28T05:46:29.860Z,53.25
2023-11-28T05:48:57.175Z,51.65
2023-11-28T05:51:24.794Z,53.94
2023-11-28T05:53:52.438Z,54.63
2023-11-28T05:56:20.559Z,56.95
2023-11-28T05:58:48.106Z,54.33
2023-11-28T06:01:19.608Z,56.90
2023-11-28T06:03:52.609Z,57.00
2023-11-28T06:06:19.764Z,56.97
2023-11-28T06:08:46.820Z,57.98
2023-11-28T06:11:14.922Z,57.57
2023-11-28T06:13:42.588Z,58.70
2023-11-28T06:16:10.742Z,60.31
2023-11-28T06:18:39.249Z,61.69
2023-11-28T06:21:10.995Z,61.52
2023-11-28T06:23:40.603Z,59.83
2023-11-28T06:26:07.658Z,60.56
2023-11-28T06:28:36.020Z,60.41
2023-11-28T06:31:03.077Z,61.55
2023-11-28T06:33:30.152Z,62.45
2023-11-28T06:35:57.343Z,63.15
2023-11-28T06:38:24.949Z,63.24
2023-11-28T06:40:53.469Z,62.07
2023-11-28T06:43:21.044Z,61.80
2023-11-28T06:45:47.953Z,60.89
2023-11-28T06:48:15.935Z,63.38
2023-11-28T06:50:42.994Z,62.51
2023-11-28T06:53:09.997Z,62.49
2023-11-28T06:55:37.067Z,61.45
2023-11-28T06:58:04.042Z,62.76
2023-11-28T07:00:30.987Z,60.64
2023-11-28T07:02:58.292Z,59.65
2023-11-28T07:05:25.459Z,60.67
2023-11-28T07:07:52.497Z,59.52
2023-11-28T07:10:19.445Z,58.64
2023-11-28T07:12:46.373Z,61.00
2023-11-28T07:15:14.356Z,58.95
2023-11-28T07:17:41.914Z,58.78
2023-11-28T07:20:11.329Z,61.84
2023-11-28T07:22:39.196Z,61.86
2023-11-28T07:25:06.427Z,63.02
2023-11-28T07:27:33.374Z,61.54
2023-11-28T07:30:00.492Z,62.06
2023-11-28T07:32:27.585Z,63.89
2023-11-28T07:34:54.640Z,63.92
2023-11-28T07:37:22.670Z,63.83
2023-11-28T07:39:49.650Z,66.62
2023-11-28T07:42:17.734Z,66.55
2023-11-28T07:44:46.138Z,64.51
2023-11-28T07:47:16.595Z,64.58
2023-11-28T07:49:44.337Z,66.54
2023-11-28T07:52:12.271Z,64.88
2023-11-28T07:54:39.221Z,63.66
2023-11-28T07:57:06.155Z,64.27
2023-11-28T07:59:33.166Z,62.61
2023-11-28T08:02:00.544Z,62.04
2023-11-28T08:04:29.040Z,59.22
2023-11-28T08:06:56.421Z,51.85
2023-11-28T08:09:24.024Z,45.83
2023-11-28T08:11:51.247Z,45.54
2023-11-28T08:14:21.288Z,44.62
2023-11-28T08:16:49.733Z,43.27
2023-11-28T08:19:17.369Z,40.67
2023-11-28T08:21:44.440Z,39.36
2023-11-28T08:24:11.514Z,37.54
2023-11-28T08:26:38.589Z,37.47
2023-11-28T08:29:05.611Z,38.58
2023-11-28T08:31:32.640Z,38.28
2023-11-28T08:33:59.598Z,38.62
2023-11-28T08:36:26.558Z,38.48
2023-11-28T08:38:53.554Z,40.64
2023-11-28T08:41:20.724Z,41.96
2023-11-28T08:43:47.858Z,42.71
2023-11-28T08:46:15.955Z,42.55
2023-11-28T08:48:43.348Z,42.20
2023-11-28T08:51:10.525Z,42.44
2023-11-28T08:53:37.457Z,43.95
2023-11-28T08:56:05.042Z,43.12
2023-11-28T08:58:32.042Z,43.06
2023-11-28T09:01:00.349Z,45.42
2023-11-28T09:03:27.533Z,45.41
2023-11-28T09:05:54.648Z,45.94
2023-11-28T09:08:22.384Z,46.93
2023-11-28T09:10:49.460Z,47.29
2023-11-28T09:13:16.503Z,47.46
2023-11-28T09:15:43.715Z,48.12
2023-11-28T09:18:10.691Z,48.58
2023-11-28T09:20:37.767Z,49.40
2023-11-28T09:23:04.919Z,50.46
2023-11-28T09:25:31.929Z,50.58
2023-11-28T09:27:59.262Z,50.41
2023-11-28T09:30:26.353Z,50.54
2023-11-28T09:32:53.558Z,51.62
2023-11-28T09:35:23.290Z,53.69
2023-11-28T09:37:51.040Z,55.94
2023-11-28T09:40:19.793Z,56.48
2023-11-28T09:42:52.977Z,56.92
2023-11-28T09:45:21.732Z,56.43
2023-11-28T09:47:50.738Z,54.71
2023-11-28T09:50:26.509Z,52.99
2023-11-28T09:52:55.339Z,52.07
2023-11-28T09:55:25.746Z,50.99
2023-11-28T09:57:57.681Z,50.57
2023-11-28T10:00:25.661Z,48.82
2023-11-28T10:02:58.187Z,48.42
2023-11-28T10:05:25.467Z,52.11
2023-11-28T10:07:57.433Z,52.06
2023-11-28T10:10:25.389Z,43.21
2023-11-28T10:12:53.904Z,40.69
2023-11-28T10:15:22.590Z,46.89
2023-11-28T10:17:50.842Z,39.84
2023-11-28T10:20:20.467Z,37.35
2023-11-28T10:22:54.293Z,38.24
2023-11-28T10:25:26.109Z,35.94
2023-11-28T10:27:59.476Z,31.81
2023-11-28T10:30:28.163Z,31.79
2023-11-28T10:32:59.974Z,31.89
2023-11-28T10:35:44.875Z,30.99
2023-11-28T10:38:14.885Z,29.13
2023-11-28T10:40:51.405Z,26.47
2023-11-28T10:43:19.364Z,24.83
2023-11-28T10:45:47.844Z,22.07
2023-11-28T10:48:15.178Z,21.43
2023-11-28T10:50:43.404Z,21.71
2023-11-28T10:53:17.144Z,20.53
2023-11-28T10:55:51.008Z,20.04
2023-11-28T10:58:20.488Z,20.49
2023-11-28T11:00:54.767Z,19.91
2023-11-28T11:03:24.298Z,20.69
2023-11-28T11:05:53.500Z,21.30
2023-11-28T11:08:21.392Z,20.29
2023-11-28T11:10:50.703Z,20.49
2023-11-28T11:13:54.819Z,20.44
2023-11-28T11:16:41.380Z,20.40
2023-11-28T11:19:10.838Z,20.84
2023-11-28T11:22:05.692Z,20.87
2023-11-28T11:24:33.856Z,21.31
2023-11-28T11:27:03.615Z,21.94
2023-11-28T11:29:30.626Z,22.19
2023-11-28T11:31:59.403Z,22.70
2023-11-28T11:34:50.263Z,23.08
2023-11-28T11:37:20.434Z,23.27
2023-11-28T11:39:53.200Z,23.59
2023-11-28T11:42:23.052Z,23.10
2023-11-28T11:44:59.610Z,23.56
2023-11-28T11:47:29.621Z,22.10
2023-11-28T11:49:59.232Z,20.96
2023-11-28T11:52:28.846Z,21.19
2023-11-28T11:55:10.277Z,21.93
2023-11-28T11:57:40.483Z,22.18
2023-11-28T12:00:12.748Z,20.84
2023-11-28T12:02:44.541Z,21.22
2023-11-28T12:05:12.899Z,20.70
2023-11-28T12:07:43.399Z,21.28
2023-11-28T12:10:14.321Z,20.64
2023-11-28T12:12:42.685Z,21.48
2023-11-28T12:15:11.853Z,20.19
2023-11-28T12:17:42.713Z,19.90
2023-11-28T12:20:12.047Z,20.09
2023-11-28T12:22:39.933Z,19.88
2023-11-28T12:25:17.110Z,20.23
2023-11-28T12:27:48.385Z,20.59
2023-11-28T12:30:16.597Z,20.89
2023-11-28T12:32:44.049Z,20.30
2023-11-28T12:35:11.677Z,20.79
2023-11-28T12:37:39.535Z,20.79
2023-11-28T12:40:11.077Z,20.69
2023-11-28T12:42:46.680Z,21.22
2023-11-28T12:45:14.172Z,21.65
2023-11-28T12:47:41.736Z,21.33
2023-11-28T12:50:10.237Z,21.62
2023-11-28T12:52:40.128Z,21.46
2023-11-28T12:55:08.710Z,21.64
2023-11-28T12:57:35.881Z,21.79
2023-11-28T13:00:02.887Z,21.54
2023-11-28T13:02:29.916Z,20.87
2023-11-28T13:04:57.313Z,19.74
2023-11-28T13:07:33.116Z,19.50
2023-11-28T13:10:06.586Z,19.47
2023-11-28T13:12:33.755Z,18.70
2023-11-28T13:15:01.082Z,17.68
2023-11-28T13:17:29.645Z,17.72
2023-11-28T13:19:56.783Z,17.21
2023-11-28T13:22:23.755Z,17.28
2023-11-28T13:24:52.315Z,16.57
2023-11-28T13:27:19.375Z,16.09
2023-11-28T13:29:47.734Z,15.34
2023-11-28T13:32:14.937Z,15.48
2023-11-28T13:34:44.514Z,15.24
2023-11-28T13:37:12.515Z,15.64
2023-11-28T13:39:43.707Z,14.17
2023-11-28T13:42:12.347Z,14.16
2023-11-28T13:44:39.348Z,14.14
2023-11-28T13:47:08.308Z,14.15
2023-11-28T13:49:35.376Z,13.48
2023-11-28T13:52:03.621Z,13.45
2023-11-28T13:54:31.746Z,13.64
2023-11-28T13:56:59.003Z,13.36
2023-11-28T13:59:30.292Z,12.87
2023-11-28T14:01:57.724Z,12.82
2023-11-28T14:04:24.775Z,12.63
2023-11-28T14:06:51.656Z,12.77
2023-11-28T14:09:20.576Z,13.01
2023-11-28T14:11:47.664Z,12.71
2023-11-28T14:14:17.717Z,12.48
2023-11-28T14:16:45.865Z,12.40
2023-11-28T14:19:12.965Z,12.95
2023-11-28T14:21:39.984Z,12.65
2023-11-28T14:24:07.514Z,12.44
2023-11-28T14:26:34.613Z,12.61
2023-11-28T14:29:01.584Z,13.14
2023-11-28T14:31:28.729Z,13.14
2023-11-28T14:33:58.029Z,12.76
2023-11-28T14:36:25.048Z,13.26
2023-11-28T14:38:52.037Z,12.97
2023-11-28T14:41:19.036Z,13.48
2023-11-28T14:43:46.065Z,12.49
2023-11-28T14:46:13.032Z,11.57
2023-11-28T14:48:40.160Z,10.77
2023-11-28T14:51:07.643Z,10.57
2023-11-28T14:53:34.917Z,10.60
2023-11-28T14:56:02.006Z,10.18
2023-11-28T14:58:28.971Z,9.95
2023-11-28T15:00:58.167Z,9.76
2023-11-28T15:03:25.970Z,9.80
2023-11-28T15:05:53.504Z,9.31
2023-11-28T15:08:21.747Z,9.78
2023-11-28T15:10:48.872Z,9.71
2023-11-28T15:13:15.869Z,11.73
2023-11-28T15:15:43.454Z,12.53
2023-11-28T15:18:10.754Z,12.33
2023-11-28T15:20:37.799Z,12.87
2023-11-28T15:23:06.357Z,12.06
2023-11-28T15:25:34.937Z,13.16
2023-11-28T15:28:02.304Z,11.10
2023-11-28T15:30:29.401Z,11.31
2023-11-28T15:32:56.512Z,11.36
2023-11-28T15:35:24.165Z,10.84
2023-11-28T15:37:55.610Z,11.12
2023-11-28T15:40:28.273Z,12.13
2023-11-28T15:42:56.487Z,13.11
2023-11-28T15:45:25.395Z,14.59
2023-11-28T15:47:52.563Z,15.56
2023-11-28T15:50:20.560Z,16.13
2023-11-28T15:52:51.182Z,20.51
2023-11-28T15:55:18.399Z,16.30
2023-11-28T15:57:48.485Z,18.83
2023-11-28T16:00:18.123Z,17.77
2023-11-28T16:02:51.471Z,16.29
2023-11-28T16:05:22.934Z,13.51
2023-11-28T16:07:50.302Z,13.48
2023-11-28T16:10:18.022Z,17.55
2023-11-28T16:12:45.517Z,17.06
2023-11-28T16:15:13.653Z,18.10
2023-11-28T16:17:41.637Z,17.66
2023-11-28T16:20:11.363Z,15.76
2023-11-28T16:22:38.617Z,14.49
2023-11-28T16:25:07.083Z,14.80
2023-11-28T16:27:34.077Z,14.30
2023-11-28T16:30:02.022Z,15.26
2023-11-28T16:32:29.506Z,13.76
2023-11-28T16:34:56.569Z,14.21
2023-11-28T16:37:24.030Z,15.88
2023-11-28T16:39:52.264Z,17.07
2023-11-28T16:42:20.334Z,16.15
2023-11-28T16:44:47.788Z,16.61
2023-11-28T16:47:16.052Z,15.84
2023-11-28T16:49:43.259Z,15.66
2023-11-28T16:52:10.980Z,17.13
2023-11-28T16:54:37.986Z,17.97
2023-11-28T16:57:05.609Z,17.05
2023-11-28T16:59:32.767Z,20.02
2023-11-28T17:02:00.014Z,16.49
2023-11-28T17:04:28.610Z,16.14
2023-11-28T17:06:58.824Z,15.96
2023-11-28T17:09:26.342Z,17.71
2023-11-28T17:11:53.610Z,17.43
2023-11-28T17:14:20.629Z,17.82
2023-11-28T17:16:47.705Z,18.27
2023-11-28T17:19:14.729Z,18.49
2023-11-28T17:21:42.212Z,18.27
2023-11-28T17:24:09.342Z,19.13
2023-11-28T17:26:36.446Z,17.27
2023-11-28T17:29:05.571Z,17.20
2023-11-28T17:31:32.670Z,17.83
2023-11-28T17:34:01.769Z,18.94
2023-11-28T17:36:28.879Z,20.20
2023-11-28T17:38:56.122Z,19.70
2023-11-28T17:41:23.158Z,19.83
2023-11-28T17:43:50.707Z,19.82
2023-11-28T17:46:18.151Z,19.99
2023-11-28T17:48:45.130Z,20.32
2023-11-28T17:51:23.895Z,20.72
2023-11-28T17:53:52.747Z,21.04
2023-11-28T17:56:21.939Z,20.47
2023-11-28T17:58:49.086Z,21.64
2023-11-28T18:01:16.318Z,20.60
2023-11-28T18:03:43.964Z,19.71
2023-11-28T18:06:11.417Z,19.77
2023-11-28T18:08:40.816Z,19.10
2023-11-28T18:11:11.369Z,20.42
2023-11-28T18:13:40.229Z,20.16
2023-11-28T18:16:07.624Z,22.47
2023-11-28T18:18:35.139Z,22.73
2023-11-28T18:21:14.810Z,22.23
2023-11-28T18:23:46.228Z,21.58
2023-11-28T18:26:14.210Z,22.16
2023-11-28T18:28:42.516Z,22.29
2023-11-28T18:31:12.976Z,20.28
2023-11-28T18:33:41.069Z,20.87
2023-11-28T18:36:10.386Z,23.08
2023-11-28T18:38:47.693Z,23.34
2023-11-28T18:41:19.932Z,22.73
2023-11-28T18:43:47.521Z,23.17
2023-11-28T18:46:16.688Z,22.44
2023-11-28T18:48:44.537Z,20.87
2023-11-28T18:51:19.260Z,20.56
2023-11-28T18:53:47.138Z,20.92
2023-11-28T18:56:24.835Z,20.53
2023-11-28T18:58:51.902Z,21.50
2023-11-28T19:01:24.147Z,21.85
2023-11-28T19:03:52.383Z,21.71
2023-11-28T19:06:20.090Z,21.22
2023-11-28T19:08:47.844Z,22.53
2023-11-28T19:11:20.512Z,23.68
2023-11-28T19:13:47.675Z,21.27
2023-11-28T19:16:14.890Z,23.19
2023-11-28T19:18:48.177Z,22.41
2023-11-28T19:21:16.520Z,21.67
2023-11-28T19:23:43.545Z,22.80
2023-11-28T19:26:15.821Z,22.92
2023-11-28T19:28:44.956Z,22.86
2023-11-28T19:31:17.229Z,23.14
2023-11-28T19:33:45.454Z,21.24
2023-11-28T19:36:13.798Z,20.06
2023-11-28T19:38:42.761Z,20.25
2023-11-28T19:41:13.667Z,18.50
2023-11-28T19:43:40.774Z,19.93
2023-11-28T19:46:09.307Z,18.50
2023-11-28T19:48:43.439Z,21.15
2023-11-28T19:51:12.681Z,21.20
2023-11-28T19:53:39.776Z,19.89
2023-11-28T19:56:07.268Z,18.15
2023-11-28T19:58:34.408Z,19.84
2023-11-28T20:01:05.960Z,17.52
2023-11-28T20:03:34.659Z,16.91
2023-11-28T20:06:02.121Z,16.42
2023-11-28T20:08:29.085Z,14.78
2023-11-28T20:10:56.211Z,14.19
2023-11-28T20:13:23.775Z,14.53
2023-11-28T20:15:51.897Z,13.82
2023-11-28T20:18:19.020Z,13.38
2023-11-28T20:20:46.099Z,12.35
2023-11-28T20:23:13.145Z,13.21
2023-11-28T20:25:40.089Z,13.15
2023-11-28T20:28:07.029Z,12.30
2023-11-28T20:30:34.428Z,13.52
2023-11-28T20:33:01.501Z,12.97
2023-11-28T20:35:28.557Z,10.86
2023-11-28T20:37:55.598Z,11.32
2023-11-28T20:40:25.473Z,9.47
2023-11-28T20:42:56.977Z,8.81
2023-11-28T20:45:24.119Z,9.41
2023-11-28T20:47:51.173Z,8.85
2023-11-28T20:50:18.288Z,8.28
2023-11-28T20:52:45.317Z,8.19
2023-11-28T20:55:12.287Z,7.96
2023-11-28T20:57:40.009Z,7.91
2023-11-28T21:00:10.574Z,7.24
2023-11-28T21:02:38.696Z,6.29
2023-11-28T21:05:06.608Z,5.73
2023-11-28T21:07:34.680Z,5.53
2023-11-28T21:10:02.625Z,4.47
2023-11-28T21:12:29.558Z,4.11
2023-11-28T21:14:56.502Z,4.51
2023-11-28T21:17:26.541Z,4.30
2023-11-28T21:19:55.353Z,4.56
2023-11-28T21:22:25.561Z,4.89
2023-11-28T21:24:55.359Z,4.75
2023-11-28T21:27:23.215Z,5.34
2023-11-28T21:29:51.796Z,4.67
2023-11-28T21:32:20.104Z,4.61
2023-11-28T21:34:47.206Z,4.73
2023-11-28T21:37:18.581Z,4.45
2023-11-28T21:39:45.537Z,4.91
2023-11-28T21:42:12.561Z,4.37
2023-11-28T21:44:40.127Z,3.77
2023-11-28T21:47:10.717Z,4.47
2023-11-28T21:49:38.696Z,4.15
2023-11-28T21:52:07.367Z,4.41
2023-11-28T21:54:34.638Z,3.63
2023-11-28T21:57:01.831Z,3.61
2023-11-28T21:59:28.791Z,3.36
2023-11-28T22:01:55.790Z,3.46
2023-11-28T22:04:22.925Z,3.40
2023-11-28T22:06:49.995Z,3.40
2023-11-28T22:09:17.318Z,3.50
2023-11-28T22:11:44.616Z,3.31
2023-11-28T22:14:12.075Z,3.29
2023-11-28T22:16:40.581Z,3.13
2023-11-28T22:19:08.860Z,3.23
2023-11-28T22:21:39.375Z,2.97
2023-11-28T22:24:09.130Z,3.12
2023-11-28T22:26:42.063Z,3.04
2023-11-28T22:29:09.871Z,3.38
2023-11-28T22:31:39.110Z,3.44
2023-11-28T22:34:07.537Z,3.50
2023-11-28T22:36:35.043Z,4.73
2023-11-28T22:39:02.070Z,6.86
2023-11-28T22:41:29.117Z,6.26
2023-11-28T22:43:56.172Z,5.65
2023-11-28T22:46:26.202Z,5.39
2023-11-28T22:48:53.249Z,5.21
2023-11-28T22:51:20.316Z,4.65
2023-11-28T22:53:47.458Z,4.97
2023-11-28T22:56:14.416Z,4.69
2023-11-28T22:58:41.467Z,4.04
2023-11-28T23:01:09.503Z,3.91
2023-11-28T23:03:36.949Z,3.86
2023-11-28T23:06:04.174Z,3.61
2023-11-28T23:08:38.497Z,3.50
2023-11-28T23:11:05.713Z,3.62
2023-11-28T23:13:32.813Z,3.47
2023-11-28T23:16:00.007Z,3.60
2023-11-28T23:18:27.333Z,3.75
2023-11-28T23:20:54.388Z,3.59
2023-11-28T23:23:21.914Z,3.61
2023-11-28T23:25:48.895Z,3.38
2023-11-28T23:28:15.962Z,3.44
2023-11-28T23:30:43.177Z,3.19
2023-11-28T23:33:10.160Z,3.26
2023-11-28T23:35:37.118Z,3.18
2023-11-28T23:38:04.150Z,3.36
2023-11-28T23:40:32.381Z,3.19
2023-11-28T23:42:59.489Z,3.63
2023-11-28T23:45:26.516Z,4.05
2023-11-28T23:47:53.735Z,3.82
2023-11-28T23:50:22.082Z,3.98
2023-11-28T23:52:49.313Z,3.80
2023-11-28T23:55:16.344Z,4.17
2023-11-28T23:57:43.426Z,4.24
